sensor_id;sensor_type;location;lat;lon;timestamp;P1;durP1;ratioP1;P2;durP2;ratioP2
56233;SDS011;42141;53.240;6.580;2023-05-20T00:01:12;10.75;;;2.47;;
56233;SDS011;42141;53.240;6.580;2023-05-20T00:03:37;8.82;;;3.13;;
56233;SDS011;42141;53.240;6.580;2023-05-20T00:06:03;10.23;;;3.08;;
56233;SDS011;42141;53.240;6.580;2023-05-20T00:08:29;8.00;;;3.40;;
56233;SDS011;42141;53.240;6.580;2023-05-20T00:10:55;5.30;;;2.65;;
56233;SDS011;42141;53.240;6.580;2023-05-20T00:13:21;5.97;;;2.78;;
56233;SDS011;42141;53.240;6.580;2023-05-20T00:15:48;6.22;;;2.35;;
56233;SDS011;42141;53.240;6.580;2023-05-20T00:18:13;10.65;;;2.33;;
56233;SDS011;42141;53.240;6.580;2023-05-20T00:20:39;10.20;;;3.05;;
56233;SDS011;42141;53.240;6.580;2023-05-20T00:23:05;9.20;;;2.78;;
56233;SDS011;42141;53.240;6.580;2023-05-20T00:25:31;6.35;;;2.85;;
56233;SDS011;42141;53.240;6.580;2023-05-20T00:27:56;6.35;;;2.88;;
56233;SDS011;42141;53.240;6.580;2023-05-20T00:30:22;12.52;;;2.17;;
56233;SDS011;42141;53.240;6.580;2023-05-20T00:32:48;5.05;;;2.53;;
56233;SDS011;42141;53.240;6.580;2023-05-20T00:35:14;7.72;;;2.42;;
56233;SDS011;42141;53.240;6.580;2023-05-20T00:37:39;9.00;;;2.72;;
56233;SDS011;42141;53.240;6.580;2023-05-20T00:40:05;9.80;;;3.58;;
56233;SDS011;42141;53.240;6.580;2023-05-20T00:42:31;10.88;;;3.20;;
56233;SDS011;42141;53.240;6.580;2023-05-20T00:44:58;6.40;;;3.05;;
56233;SDS011;42141;53.240;6.580;2023-05-20T00:47:25;10.98;;;3.40;;
56233;SDS011;42141;53.240;6.580;2023-05-20T00:49:54;7.35;;;2.90;;
56233;SDS011;42141;53.240;6.580;2023-05-20T00:52:20;7.47;;;3.22;;
56233;SDS011;42141;53.240;6.580;2023-05-20T00:54:46;5.28;;;2.80;;
56233;SDS011;42141;53.240;6.580;2023-05-20T00:57:14;10.55;;;3.25;;
56233;SDS011;42141;53.240;6.580;2023-05-20T00:59:40;9.13;;;2.63;;
56233;SDS011;42141;53.240;6.580;2023-05-20T01:02:06;11.02;;;2.80;;
56233;SDS011;42141;53.240;6.580;2023-05-20T01:04:32;9.70;;;2.42;;
56233;SDS011;42141;53.240;6.580;2023-05-20T01:06:59;7.45;;;2.45;;
56233;SDS011;42141;53.240;6.580;2023-05-20T01:09:28;4.88;;;2.75;;
56233;SDS011;42141;53.240;6.580;2023-05-20T01:12:04;8.10;;;3.40;;
56233;SDS011;42141;53.240;6.580;2023-05-20T01:14:47;4.82;;;2.65;;
56233;SDS011;42141;53.240;6.580;2023-05-20T01:17:15;7.00;;;2.97;;
56233;SDS011;42141;53.240;6.580;2023-05-20T01:19:45;7.43;;;3.28;;
56233;SDS011;42141;53.240;6.580;2023-05-20T01:22:13;9.32;;;2.80;;
56233;SDS011;42141;53.240;6.580;2023-05-20T01:24:44;12.43;;;3.53;;
56233;SDS011;42141;53.240;6.580;2023-05-20T01:27:12;8.83;;;3.00;;
56233;SDS011;42141;53.240;6.580;2023-05-20T01:29:39;6.47;;;3.00;;
56233;SDS011;42141;53.240;6.580;2023-05-20T01:32:06;7.88;;;3.13;;
56233;SDS011;42141;53.240;6.580;2023-05-20T01:34:41;7.03;;;2.65;;
56233;SDS011;42141;53.240;6.580;2023-05-20T01:37:09;6.13;;;3.10;;
56233;SDS011;42141;53.240;6.580;2023-05-20T01:39:37;7.57;;;3.20;;
56233;SDS011;42141;53.240;6.580;2023-05-20T01:42:06;6.20;;;3.17;;
56233;SDS011;42141;53.240;6.580;2023-05-20T01:44:36;7.05;;;3.03;;
56233;SDS011;42141;53.240;6.580;2023-05-20T01:47:01;7.68;;;3.88;;
56233;SDS011;42141;53.240;6.580;2023-05-20T01:49:27;6.63;;;3.08;;
56233;SDS011;42141;53.240;6.580;2023-05-20T01:51:53;6.88;;;3.30;;
56233;SDS011;42141;53.240;6.580;2023-05-20T01:54:19;7.65;;;2.88;;
56233;SDS011;42141;53.240;6.580;2023-05-20T01:56:45;11.30;;;3.58;;
56233;SDS011;42141;53.240;6.580;2023-05-20T01:59:11;6.55;;;3.38;;
56233;SDS011;42141;53.240;6.580;2023-05-20T02:01:37;7.55;;;3.50;;
56233;SDS011;42141;53.240;6.580;2023-05-20T02:04:03;9.63;;;2.88;;
56233;SDS011;42141;53.240;6.580;2023-05-20T02:06:28;9.45;;;2.72;;
56233;SDS011;42141;53.240;6.580;2023-05-20T02:08:54;8.50;;;3.75;;
56233;SDS011;42141;53.240;6.580;2023-05-20T02:11:20;6.60;;;3.05;;
56233;SDS011;42141;53.240;6.580;2023-05-20T02:13:46;9.13;;;2.80;;
56233;SDS011;42141;53.240;6.580;2023-05-20T02:16:12;6.45;;;2.83;;
56233;SDS011;42141;53.240;6.580;2023-05-20T02:18:37;7.03;;;2.75;;
56233;SDS011;42141;53.240;6.580;2023-05-20T02:21:03;4.25;;;2.33;;
56233;SDS011;42141;53.240;6.580;2023-05-20T02:23:30;6.30;;;3.08;;
56233;SDS011;42141;53.240;6.580;2023-05-20T02:25:55;5.65;;;2.80;;
56233;SDS011;42141;53.240;6.580;2023-05-20T02:28:21;5.85;;;3.10;;
56233;SDS011;42141;53.240;6.580;2023-05-20T02:30:47;12.38;;;3.10;;
56233;SDS011;42141;53.240;6.580;2023-05-20T02:33:15;5.75;;;2.97;;
56233;SDS011;42141;53.240;6.580;2023-05-20T02:35:41;6.88;;;2.63;;
56233;SDS011;42141;53.240;6.580;2023-05-20T02:38:07;7.05;;;2.47;;
56233;SDS011;42141;53.240;6.580;2023-05-20T02:40:33;7.15;;;2.83;;
56233;SDS011;42141;53.240;6.580;2023-05-20T02:42:59;5.18;;;2.80;;
56233;SDS011;42141;53.240;6.580;2023-05-20T02:45:25;5.70;;;2.60;;
56233;SDS011;42141;53.240;6.580;2023-05-20T02:47:51;5.90;;;2.33;;
56233;SDS011;42141;53.240;6.580;2023-05-20T02:50:17;5.82;;;3.50;;
56233;SDS011;42141;53.240;6.580;2023-05-20T02:52:42;6.20;;;2.53;;
56233;SDS011;42141;53.240;6.580;2023-05-20T02:55:09;3.33;;;2.38;;
56233;SDS011;42141;53.240;6.580;2023-05-20T02:57:35;7.25;;;2.70;;
56233;SDS011;42141;53.240;6.580;2023-05-20T03:00:04;5.97;;;2.80;;
56233;SDS011;42141;53.240;6.580;2023-05-20T03:02:37;5.53;;;2.45;;
56233;SDS011;42141;53.240;6.580;2023-05-20T03:05:03;6.50;;;2.60;;
56233;SDS011;42141;53.240;6.580;2023-05-20T03:07:29;7.45;;;2.55;;
56233;SDS011;42141;53.240;6.580;2023-05-20T03:09:58;5.45;;;2.33;;
56233;SDS011;42141;53.240;6.580;2023-05-20T03:12:24;6.85;;;2.53;;
56233;SDS011;42141;53.240;6.580;2023-05-20T03:14:50;5.78;;;2.33;;
56233;SDS011;42141;53.240;6.580;2023-05-20T03:17:20;6.00;;;2.20;;
56233;SDS011;42141;53.240;6.580;2023-05-20T03:19:47;5.88;;;1.88;;
56233;SDS011;42141;53.240;6.580;2023-05-20T03:22:12;5.15;;;2.28;;
56233;SDS011;42141;53.240;6.580;2023-05-20T03:24:38;8.25;;;2.00;;
56233;SDS011;42141;53.240;6.580;2023-05-20T03:27:04;3.95;;;2.33;;
56233;SDS011;42141;53.240;6.580;2023-05-20T03:29:31;5.15;;;2.05;;
56233;SDS011;42141;53.240;6.580;2023-05-20T03:31:57;3.67;;;1.80;;
56233;SDS011;42141;53.240;6.580;2023-05-20T03:34:23;5.68;;;1.92;;
56233;SDS011;42141;53.240;6.580;2023-05-20T03:36:50;6.70;;;2.78;;
56233;SDS011;42141;53.240;6.580;2023-05-20T03:39:15;9.30;;;2.15;;
56233;SDS011;42141;53.240;6.580;2023-05-20T03:41:41;4.20;;;1.55;;
56233;SDS011;42141;53.240;6.580;2023-05-20T03:44:07;3.80;;;1.83;;
56233;SDS011;42141;53.240;6.580;2023-05-20T03:46:32;3.35;;;1.58;;
56233;SDS011;42141;53.240;6.580;2023-05-20T03:48:58;3.17;;;1.60;;
56233;SDS011;42141;53.240;6.580;2023-05-20T03:51:26;6.82;;;2.05;;
56233;SDS011;42141;53.240;6.580;2023-05-20T03:53:52;3.05;;;1.80;;
56233;SDS011;42141;53.240;6.580;2023-05-20T03:56:17;5.22;;;1.88;;
56233;SDS011;42141;53.240;6.580;2023-05-20T03:58:43;2.58;;;1.35;;
56233;SDS011;42141;53.240;6.580;2023-05-20T04:01:09;2.50;;;1.30;;
56233;SDS011;42141;53.240;6.580;2023-05-20T04:03:37;3.58;;;1.70;;
56233;SDS011;42141;53.240;6.580;2023-05-20T04:06:03;3.67;;;1.67;;
56233;SDS011;42141;53.240;6.580;2023-05-20T04:08:29;6.13;;;1.55;;
56233;SDS011;42141;53.240;6.580;2023-05-20T04:10:55;4.43;;;1.38;;
56233;SDS011;42141;53.240;6.580;2023-05-20T04:13:21;4.18;;;1.48;;
56233;SDS011;42141;53.240;6.580;2023-05-20T04:15:49;2.95;;;1.63;;
56233;SDS011;42141;53.240;6.580;2023-05-20T04:18:17;3.50;;;1.30;;
56233;SDS011;42141;53.240;6.580;2023-05-20T04:20:43;2.88;;;0.98;;
56233;SDS011;42141;53.240;6.580;2023-05-20T04:23:10;2.13;;;1.20;;
56233;SDS011;42141;53.240;6.580;2023-05-20T04:25:36;2.17;;;1.27;;
56233;SDS011;42141;53.240;6.580;2023-05-20T04:28:02;2.67;;;1.05;;
56233;SDS011;42141;53.240;6.580;2023-05-20T04:30:29;3.40;;;1.33;;
56233;SDS011;42141;53.240;6.580;2023-05-20T04:32:57;2.75;;;1.20;;
56233;SDS011;42141;53.240;6.580;2023-05-20T04:35:26;4.53;;;1.20;;
56233;SDS011;42141;53.240;6.580;2023-05-20T04:37:53;2.38;;;1.00;;
56233;SDS011;42141;53.240;6.580;2023-05-20T04:40:19;1.40;;;0.85;;
56233;SDS011;42141;53.240;6.580;2023-05-20T04:42:45;2.08;;;0.82;;
56233;SDS011;42141;53.240;6.580;2023-05-20T04:45:11;2.63;;;0.95;;
56233;SDS011;42141;53.240;6.580;2023-05-20T04:47:37;1.80;;;1.00;;
56233;SDS011;42141;53.240;6.580;2023-05-20T04:50:09;3.47;;;1.00;;
56233;SDS011;42141;53.240;6.580;2023-05-20T04:52:36;5.05;;;1.10;;
56233;SDS011;42141;53.240;6.580;2023-05-20T04:55:03;6.90;;;1.30;;
56233;SDS011;42141;53.240;6.580;2023-05-20T04:57:34;3.38;;;1.00;;
56233;SDS011;42141;53.240;6.580;2023-05-20T05:00:03;2.35;;;0.70;;
56233;SDS011;42141;53.240;6.580;2023-05-20T05:02:31;2.13;;;0.85;;
56233;SDS011;42141;53.240;6.580;2023-05-20T05:04:57;3.08;;;1.08;;
56233;SDS011;42141;53.240;6.580;2023-05-20T05:07:23;2.97;;;0.80;;
56233;SDS011;42141;53.240;6.580;2023-05-20T05:09:49;3.85;;;0.60;;
56233;SDS011;42141;53.240;6.580;2023-05-20T05:12:15;4.30;;;0.90;;
56233;SDS011;42141;53.240;6.580;2023-05-20T05:14:41;1.75;;;0.70;;
56233;SDS011;42141;53.240;6.580;2023-05-20T05:17:06;1.02;;;0.75;;
56233;SDS011;42141;53.240;6.580;2023-05-20T05:19:32;1.10;;;0.70;;
56233;SDS011;42141;53.240;6.580;2023-05-20T05:21:58;1.52;;;1.00;;
56233;SDS011;42141;53.240;6.580;2023-05-20T05:24:23;2.15;;;0.93;;
56233;SDS011;42141;53.240;6.580;2023-05-20T05:26:52;2.50;;;0.88;;
56233;SDS011;42141;53.240;6.580;2023-05-20T05:29:18;1.20;;;0.60;;
56233;SDS011;42141;53.240;6.580;2023-05-20T05:31:44;1.30;;;0.52;;
56233;SDS011;42141;53.240;6.580;2023-05-20T05:34:09;2.15;;;0.63;;
56233;SDS011;42141;53.240;6.580;2023-05-20T05:36:37;1.15;;;0.63;;
56233;SDS011;42141;53.240;6.580;2023-05-20T05:39:03;3.20;;;0.60;;
56233;SDS011;42141;53.240;6.580;2023-05-20T05:41:29;1.65;;;0.55;;
56233;SDS011;42141;53.240;6.580;2023-05-20T05:43:55;1.08;;;0.45;;
56233;SDS011;42141;53.240;6.580;2023-05-20T05:46:22;1.05;;;0.52;;
56233;SDS011;42141;53.240;6.580;2023-05-20T05:48:48;2.22;;;0.65;;
56233;SDS011;42141;53.240;6.580;2023-05-20T05:51:15;1.02;;;0.50;;
56233;SDS011;42141;53.240;6.580;2023-05-20T05:53:41;2.90;;;0.70;;
56233;SDS011;42141;53.240;6.580;2023-05-20T05:56:07;0.88;;;0.50;;
56233;SDS011;42141;53.240;6.580;2023-05-20T05:58:34;0.90;;;0.50;;
56233;SDS011;42141;53.240;6.580;2023-05-20T06:00:59;1.30;;;0.40;;
56233;SDS011;42141;53.240;6.580;2023-05-20T06:03:26;2.22;;;0.60;;
56233;SDS011;42141;53.240;6.580;2023-05-20T06:05:53;0.75;;;0.40;;
56233;SDS011;42141;53.240;6.580;2023-05-20T06:08:19;1.30;;;0.52;;
56233;SDS011;42141;53.240;6.580;2023-05-20T06:10:48;2.38;;;0.55;;
56233;SDS011;42141;53.240;6.580;2023-05-20T06:13:15;1.13;;;0.50;;
56233;SDS011;42141;53.240;6.580;2023-05-20T06:15:41;0.95;;;0.50;;
56233;SDS011;42141;53.240;6.580;2023-05-20T06:18:06;1.08;;;0.40;;
56233;SDS011;42141;53.240;6.580;2023-05-20T06:20:32;2.35;;;0.70;;
56233;SDS011;42141;53.240;6.580;2023-05-20T06:22:58;1.50;;;0.50;;
56233;SDS011;42141;53.240;6.580;2023-05-20T06:25:24;1.30;;;0.65;;
56233;SDS011;42141;53.240;6.580;2023-05-20T06:27:49;0.70;;;0.40;;
56233;SDS011;42141;53.240;6.580;2023-05-20T06:30:15;3.75;;;0.60;;
56233;SDS011;42141;53.240;6.580;2023-05-20T06:32:41;3.05;;;0.50;;
56233;SDS011;42141;53.240;6.580;2023-05-20T06:35:07;1.52;;;0.57;;
56233;SDS011;42141;53.240;6.580;2023-05-20T06:37:33;1.08;;;0.50;;
56233;SDS011;42141;53.240;6.580;2023-05-20T06:39:59;1.42;;;0.50;;
56233;SDS011;42141;53.240;6.580;2023-05-20T06:42:25;1.00;;;0.43;;
56233;SDS011;42141;53.240;6.580;2023-05-20T06:44:51;1.67;;;0.63;;
56233;SDS011;42141;53.240;6.580;2023-05-20T06:47:16;3.13;;;0.80;;
56233;SDS011;42141;53.240;6.580;2023-05-20T06:49:42;2.35;;;0.57;;
56233;SDS011;42141;53.240;6.580;2023-05-20T06:52:09;1.80;;;0.60;;
56233;SDS011;42141;53.240;6.580;2023-05-20T06:54:36;0.82;;;0.50;;
56233;SDS011;42141;53.240;6.580;2023-05-20T06:57:08;2.33;;;1.08;;
56233;SDS011;42141;53.240;6.580;2023-05-20T06:59:35;0.75;;;0.50;;
56233;SDS011;42141;53.240;6.580;2023-05-20T07:02:01;1.38;;;0.40;;
56233;SDS011;42141;53.240;6.580;2023-05-20T07:04:27;3.80;;;0.63;;
56233;SDS011;42141;53.240;6.580;2023-05-20T07:06:53;3.85;;;0.63;;
56233;SDS011;42141;53.240;6.580;2023-05-20T07:09:19;1.80;;;0.63;;
56233;SDS011;42141;53.240;6.580;2023-05-20T07:11:45;1.63;;;0.55;;
56233;SDS011;42141;53.240;6.580;2023-05-20T07:14:10;3.00;;;0.60;;
56233;SDS011;42141;53.240;6.580;2023-05-20T07:16:36;1.67;;;0.63;;
56233;SDS011;42141;53.240;6.580;2023-05-20T07:19:02;2.40;;;0.70;;
56233;SDS011;42141;53.240;6.580;2023-05-20T07:21:28;1.00;;;0.40;;
56233;SDS011;42141;53.240;6.580;2023-05-20T07:23:54;2.78;;;0.60;;
56233;SDS011;42141;53.240;6.580;2023-05-20T07:26:20;2.10;;;0.60;;
56233;SDS011;42141;53.240;6.580;2023-05-20T07:28:46;1.15;;;0.50;;
56233;SDS011;42141;53.240;6.580;2023-05-20T07:31:12;3.08;;;0.60;;
56233;SDS011;42141;53.240;6.580;2023-05-20T07:33:38;2.92;;;0.63;;
56233;SDS011;42141;53.240;6.580;2023-05-20T07:36:04;3.05;;;0.60;;
56233;SDS011;42141;53.240;6.580;2023-05-20T07:38:30;1.00;;;0.47;;
56233;SDS011;42141;53.240;6.580;2023-05-20T07:40:56;2.92;;;0.75;;
56233;SDS011;42141;53.240;6.580;2023-05-20T07:43:22;3.05;;;0.95;;
56233;SDS011;42141;53.240;6.580;2023-05-20T07:45:48;2.05;;;0.47;;
56233;SDS011;42141;53.240;6.580;2023-05-20T07:48:14;1.90;;;0.63;;
56233;SDS011;42141;53.240;6.580;2023-05-20T07:50:39;2.42;;;0.88;;
56233;SDS011;42141;53.240;6.580;2023-05-20T07:53:05;4.38;;;0.98;;
56233;SDS011;42141;53.240;6.580;2023-05-20T07:55:34;1.20;;;0.38;;
56233;SDS011;42141;53.240;6.580;2023-05-20T07:58:01;5.38;;;1.00;;
56233;SDS011;42141;53.240;6.580;2023-05-20T08:00:27;1.85;;;0.88;;
56233;SDS011;42141;53.240;6.580;2023-05-20T08:02:52;1.42;;;0.60;;
56233;SDS011;42141;53.240;6.580;2023-05-20T08:05:18;1.27;;;0.50;;
56233;SDS011;42141;53.240;6.580;2023-05-20T08:07:44;1.08;;;0.40;;
56233;SDS011;42141;53.240;6.580;2023-05-20T08:10:10;3.17;;;1.02;;
56233;SDS011;42141;53.240;6.580;2023-05-20T08:12:36;0.90;;;0.40;;
56233;SDS011;42141;53.240;6.580;2023-05-20T08:15:01;1.33;;;0.40;;
56233;SDS011;42141;53.240;6.580;2023-05-20T08:17:28;1.40;;;0.47;;
56233;SDS011;42141;53.240;6.580;2023-05-20T08:19:54;1.50;;;0.60;;
56233;SDS011;42141;53.240;6.580;2023-05-20T08:22:20;0.93;;;0.50;;
56233;SDS011;42141;53.240;6.580;2023-05-20T08:24:45;2.45;;;0.50;;
56233;SDS011;42141;53.240;6.580;2023-05-20T08:27:11;2.22;;;0.70;;
56233;SDS011;42141;53.240;6.580;2023-05-20T08:29:37;2.90;;;0.70;;
56233;SDS011;42141;53.240;6.580;2023-05-20T08:32:02;1.83;;;0.50;;
56233;SDS011;42141;53.240;6.580;2023-05-20T08:34:28;0.85;;;0.35;;
56233;SDS011;42141;53.240;6.580;2023-05-20T08:36:54;2.13;;;0.40;;
56233;SDS011;42141;53.240;6.580;2023-05-20T08:39:21;0.90;;;0.40;;
56233;SDS011;42141;53.240;6.580;2023-05-20T08:41:47;2.55;;;0.52;;
56233;SDS011;42141;53.240;6.580;2023-05-20T08:44:13;1.38;;;0.50;;
56233;SDS011;42141;53.240;6.580;2023-05-20T08:46:41;4.10;;;0.55;;
56233;SDS011;42141;53.240;6.580;2023-05-20T08:49:08;3.38;;;0.60;;
56233;SDS011;42141;53.240;6.580;2023-05-20T08:51:34;2.35;;;0.50;;
56233;SDS011;42141;53.240;6.580;2023-05-20T08:54:01;1.05;;;0.68;;
56233;SDS011;42141;53.240;6.580;2023-05-20T08:56:28;2.30;;;0.50;;
56233;SDS011;42141;53.240;6.580;2023-05-20T08:58:54;0.98;;;0.50;;
56233;SDS011;42141;53.240;6.580;2023-05-20T09:01:23;2.28;;;0.95;;
56233;SDS011;42141;53.240;6.580;2023-05-20T09:03:49;1.58;;;0.60;;
56233;SDS011;42141;53.240;6.580;2023-05-20T09:06:15;1.65;;;0.68;;
56233;SDS011;42141;53.240;6.580;2023-05-20T09:08:47;2.13;;;0.45;;
56233;SDS011;42141;53.240;6.580;2023-05-20T09:11:14;2.00;;;0.50;;
56233;SDS011;42141;53.240;6.580;2023-05-20T09:13:39;1.10;;;0.60;;
56233;SDS011;42141;53.240;6.580;2023-05-20T09:16:05;1.27;;;0.50;;
56233;SDS011;42141;53.240;6.580;2023-05-20T09:18:36;3.58;;;0.70;;
56233;SDS011;42141;53.240;6.580;2023-05-20T09:21:04;4.07;;;0.70;;
56233;SDS011;42141;53.240;6.580;2023-05-20T09:23:35;1.63;;;0.68;;
56233;SDS011;42141;53.240;6.580;2023-05-20T09:26:02;0.85;;;0.52;;
56233;SDS011;42141;53.240;6.580;2023-05-20T09:28:28;1.35;;;0.65;;
56233;SDS011;42141;53.240;6.580;2023-05-20T09:30:57;0.82;;;0.60;;
56233;SDS011;42141;53.240;6.580;2023-05-20T09:33:26;1.65;;;0.55;;
56233;SDS011;42141;53.240;6.580;2023-05-20T09:36:29;1.40;;;0.60;;
56233;SDS011;42141;53.240;6.580;2023-05-20T09:38:50;1.48;;;0.63;;
56233;SDS011;42141;53.240;6.580;2023-05-20T09:41:21;0.90;;;0.40;;
56233;SDS011;42141;53.240;6.580;2023-05-20T09:43:48;1.80;;;0.50;;
56233;SDS011;42141;53.240;6.580;2023-05-20T09:46:16;1.75;;;0.52;;
56233;SDS011;42141;53.240;6.580;2023-05-20T09:48:43;2.33;;;0.52;;
56233;SDS011;42141;53.240;6.580;2023-05-20T09:51:09;2.25;;;0.68;;
56233;SDS011;42141;53.240;6.580;2023-05-20T09:53:36;2.35;;;0.70;;
56233;SDS011;42141;53.240;6.580;2023-05-20T09:56:02;5.20;;;0.90;;
56233;SDS011;42141;53.240;6.580;2023-05-20T09:58:28;3.22;;;0.60;;
56233;SDS011;42141;53.240;6.580;2023-05-20T10:00:54;4.18;;;0.70;;
56233;SDS011;42141;53.240;6.580;2023-05-20T10:03:20;1.00;;;0.60;;
56233;SDS011;42141;53.240;6.580;2023-05-20T10:19:28;2.33;;;0.77;;
56233;SDS011;42141;53.240;6.580;2023-05-20T10:24:29;2.70;;;0.60;;
56233;SDS011;42141;53.240;6.580;2023-05-20T10:26:56;2.88;;;0.80;;
56233;SDS011;42141;53.240;6.580;2023-05-20T10:29:24;3.35;;;0.65;;
56233;SDS011;42141;53.240;6.580;2023-05-20T10:31:51;1.70;;;0.70;;
56233;SDS011;42141;53.240;6.580;2023-05-20T10:34:18;1.15;;;0.60;;
56233;SDS011;42141;53.240;6.580;2023-05-20T10:39:27;3.13;;;0.55;;
56233;SDS011;42141;53.240;6.580;2023-05-20T10:42:15;1.90;;;0.50;;
56233;SDS011;42141;53.240;6.580;2023-05-20T10:44:43;2.10;;;0.63;;
56233;SDS011;42141;53.240;6.580;2023-05-20T10:47:10;1.25;;;0.70;;
56233;SDS011;42141;53.240;6.580;2023-05-20T10:49:40;4.30;;;0.95;;
56233;SDS011;42141;53.240;6.580;2023-05-20T10:52:10;2.75;;;0.70;;
56233;SDS011;42141;53.240;6.580;2023-05-20T10:54:44;4.35;;;0.75;;
56233;SDS011;42141;53.240;6.580;2023-05-20T10:57:27;2.97;;;0.65;;
56233;SDS011;42141;53.240;6.580;2023-05-20T10:59:54;1.92;;;0.70;;
56233;SDS011;42141;53.240;6.580;2023-05-20T11:02:20;3.00;;;0.80;;
56233;SDS011;42141;53.240;6.580;2023-05-20T11:07:25;3.35;;;0.98;;
56233;SDS011;42141;53.240;6.580;2023-05-20T11:09:52;3.05;;;0.75;;
56233;SDS011;42141;53.240;6.580;2023-05-20T11:12:20;2.95;;;1.00;;
56233;SDS011;42141;53.240;6.580;2023-05-20T11:14:47;2.67;;;0.85;;
56233;SDS011;42141;53.240;6.580;2023-05-20T11:17:17;1.80;;;0.80;;
56233;SDS011;42141;53.240;6.580;2023-05-20T11:19:43;3.15;;;1.27;;
56233;SDS011;42141;53.240;6.580;2023-05-20T11:22:10;2.05;;;0.90;;
56233;SDS011;42141;53.240;6.580;2023-05-20T11:24:36;3.17;;;1.30;;
56233;SDS011;42141;53.240;6.580;2023-05-20T11:27:01;2.80;;;0.80;;
56233;SDS011;42141;53.240;6.580;2023-05-20T11:29:27;1.70;;;0.95;;
56233;SDS011;42141;53.240;6.580;2023-05-20T11:31:56;5.25;;;1.30;;
56233;SDS011;42141;53.240;6.580;2023-05-20T11:34:23;2.83;;;1.17;;
56233;SDS011;42141;53.240;6.580;2023-05-20T11:36:55;2.38;;;1.08;;
56233;SDS011;42141;53.240;6.580;2023-05-20T11:41:47;3.13;;;1.05;;
56233;SDS011;42141;53.240;6.580;2023-05-20T11:44:12;6.13;;;1.02;;
56233;SDS011;42141;53.240;6.580;2023-05-20T11:46:42;3.83;;;0.90;;
56233;SDS011;42141;53.240;6.580;2023-05-20T11:49:10;3.80;;;1.15;;
56233;SDS011;42141;53.240;6.580;2023-05-20T11:51:37;1.92;;;0.80;;
56233;SDS011;42141;53.240;6.580;2023-05-20T11:54:05;3.65;;;1.05;;
56233;SDS011;42141;53.240;6.580;2023-05-20T11:56:32;1.27;;;0.70;;
56233;SDS011;42141;53.240;6.580;2023-05-20T11:59:00;5.25;;;1.20;;
56233;SDS011;42141;53.240;6.580;2023-05-20T12:01:29;2.17;;;0.93;;
56233;SDS011;42141;53.240;6.580;2023-05-20T12:04:02;3.45;;;1.20;;
56233;SDS011;42141;53.240;6.580;2023-05-20T12:06:29;4.65;;;1.20;;
56233;SDS011;42141;53.240;6.580;2023-05-20T12:08:55;3.00;;;1.08;;
56233;SDS011;42141;53.240;6.580;2023-05-20T12:11:23;2.10;;;1.00;;
56233;SDS011;42141;53.240;6.580;2023-05-20T12:13:49;2.97;;;1.13;;
56233;SDS011;42141;53.240;6.580;2023-05-20T12:16:15;2.78;;;1.38;;
56233;SDS011;42141;53.240;6.580;2023-05-20T12:18:41;3.50;;;1.20;;
56233;SDS011;42141;53.240;6.580;2023-05-20T12:21:07;1.90;;;0.90;;
56233;SDS011;42141;53.240;6.580;2023-05-20T12:23:32;4.82;;;1.30;;
56233;SDS011;42141;53.240;6.580;2023-05-20T12:25:58;2.65;;;0.98;;
56233;SDS011;42141;53.240;6.580;2023-05-20T12:28:24;4.30;;;1.38;;
56233;SDS011;42141;53.240;6.580;2023-05-20T12:30:50;5.75;;;1.48;;
56233;SDS011;42141;53.240;6.580;2023-05-20T12:33:16;6.30;;;1.58;;
56233;SDS011;42141;53.240;6.580;2023-05-20T12:35:42;2.10;;;1.20;;
56233;SDS011;42141;53.240;6.580;2023-05-20T12:38:08;3.03;;;1.17;;
56233;SDS011;42141;53.240;6.580;2023-05-20T12:40:34;1.58;;;1.10;;
56233;SDS011;42141;53.240;6.580;2023-05-20T12:43:02;4.00;;;1.38;;
56233;SDS011;42141;53.240;6.580;2023-05-20T12:45:28;3.15;;;1.45;;
56233;SDS011;42141;53.240;6.580;2023-05-20T12:47:55;4.20;;;1.20;;
56233;SDS011;42141;53.240;6.580;2023-05-20T12:50:21;2.85;;;1.38;;
56233;SDS011;42141;53.240;6.580;2023-05-20T12:52:48;4.28;;;1.30;;
56233;SDS011;42141;53.240;6.580;2023-05-20T12:55:14;3.90;;;1.33;;
56233;SDS011;42141;53.240;6.580;2023-05-20T12:57:40;2.53;;;0.95;;
56233;SDS011;42141;53.240;6.580;2023-05-20T13:00:09;6.65;;;1.35;;
56233;SDS011;42141;53.240;6.580;2023-05-20T13:02:36;4.10;;;1.50;;
56233;SDS011;42141;53.240;6.580;2023-05-20T13:05:03;2.60;;;1.70;;
56233;SDS011;42141;53.240;6.580;2023-05-20T13:07:30;2.15;;;1.27;;
56233;SDS011;42141;53.240;6.580;2023-05-20T13:09:57;3.88;;;1.33;;
56233;SDS011;42141;53.240;6.580;2023-05-20T13:12:23;5.60;;;1.23;;
56233;SDS011;42141;53.240;6.580;2023-05-20T13:14:49;3.33;;;1.23;;
56233;SDS011;42141;53.240;6.580;2023-05-20T13:17:15;5.03;;;0.93;;
56233;SDS011;42141;53.240;6.580;2023-05-20T13:19:41;5.03;;;1.20;;
56233;SDS011;42141;53.240;6.580;2023-05-20T13:22:06;2.22;;;1.20;;
56233;SDS011;42141;53.240;6.580;2023-05-20T13:24:33;5.65;;;1.40;;
56233;SDS011;42141;53.240;6.580;2023-05-20T13:26:59;3.58;;;1.98;;
56233;SDS011;42141;53.240;6.580;2023-05-20T13:29:25;2.92;;;1.20;;
56233;SDS011;42141;53.240;6.580;2023-05-20T13:31:51;2.35;;;1.17;;
56233;SDS011;42141;53.240;6.580;2023-05-20T13:34:17;2.75;;;1.35;;
56233;SDS011;42141;53.240;6.580;2023-05-20T13:36:43;4.55;;;1.25;;
56233;SDS011;42141;53.240;6.580;2023-05-20T13:39:10;1.92;;;0.98;;
56233;SDS011;42141;53.240;6.580;2023-05-20T13:41:36;3.08;;;1.58;;
56233;SDS011;42141;53.240;6.580;2023-05-20T13:44:01;3.88;;;1.35;;
56233;SDS011;42141;53.240;6.580;2023-05-20T13:46:27;7.35;;;2.30;;
56233;SDS011;42141;53.240;6.580;2023-05-20T13:48:53;4.70;;;1.40;;
56233;SDS011;42141;53.240;6.580;2023-05-20T13:51:18;5.00;;;1.40;;
56233;SDS011;42141;53.240;6.580;2023-05-20T13:53:44;3.25;;;1.38;;
56233;SDS011;42141;53.240;6.580;2023-05-20T13:56:10;4.75;;;1.63;;
56233;SDS011;42141;53.240;6.580;2023-05-20T13:58:36;3.13;;;1.40;;
56233;SDS011;42141;53.240;6.580;2023-05-20T14:01:02;5.28;;;1.70;;
56233;SDS011;42141;53.240;6.580;2023-05-20T14:03:29;5.30;;;1.58;;
56233;SDS011;42141;53.240;6.580;2023-05-20T14:05:58;4.60;;;1.33;;
56233;SDS011;42141;53.240;6.580;2023-05-20T14:08:24;4.30;;;1.10;;
56233;SDS011;42141;53.240;6.580;2023-05-20T14:10:50;5.35;;;1.33;;
56233;SDS011;42141;53.240;6.580;2023-05-20T14:13:19;1.92;;;1.30;;
56233;SDS011;42141;53.240;6.580;2023-05-20T14:15:45;2.83;;;1.05;;
56233;SDS011;42141;53.240;6.580;2023-05-20T14:18:11;2.85;;;1.50;;
56233;SDS011;42141;53.240;6.580;2023-05-20T14:20:37;2.47;;;1.23;;
56233;SDS011;42141;53.240;6.580;2023-05-20T14:23:02;3.42;;;1.42;;
56233;SDS011;42141;53.240;6.580;2023-05-20T14:25:28;2.75;;;1.00;;
56233;SDS011;42141;53.240;6.580;2023-05-20T14:27:54;3.17;;;1.25;;
56233;SDS011;42141;53.240;6.580;2023-05-20T14:30:20;4.57;;;1.70;;
56233;SDS011;42141;53.240;6.580;2023-05-20T14:32:45;4.65;;;1.30;;
56233;SDS011;42141;53.240;6.580;2023-05-20T14:35:11;2.78;;;1.17;;
56233;SDS011;42141;53.240;6.580;2023-05-20T14:37:37;1.98;;;1.00;;
56233;SDS011;42141;53.240;6.580;2023-05-20T14:40:03;4.93;;;1.45;;
56233;SDS011;42141;53.240;6.580;2023-05-20T14:42:31;3.33;;;1.48;;
56233;SDS011;42141;53.240;6.580;2023-05-20T14:44:57;2.03;;;1.23;;
56233;SDS011;42141;53.240;6.580;2023-05-20T14:47:23;4.13;;;1.42;;
56233;SDS011;42141;53.240;6.580;2023-05-20T14:49:49;4.03;;;1.10;;
56233;SDS011;42141;53.240;6.580;2023-05-20T14:52:15;6.00;;;1.17;;
56233;SDS011;42141;53.240;6.580;2023-05-20T14:54:41;3.15;;;1.08;;
56233;SDS011;42141;53.240;6.580;2023-05-20T14:57:07;4.85;;;1.10;;
56233;SDS011;42141;53.240;6.580;2023-05-20T14:59:33;2.65;;;1.30;;
56233;SDS011;42141;53.240;6.580;2023-05-20T15:01:58;3.15;;;1.10;;
56233;SDS011;42141;53.240;6.580;2023-05-20T15:04:24;4.57;;;1.83;;
56233;SDS011;42141;53.240;6.580;2023-05-20T15:06:50;2.85;;;1.05;;
56233;SDS011;42141;53.240;6.580;2023-05-20T15:09:16;4.60;;;1.40;;